createdAt,value
2023-05-19T00:01:47.350Z,11.80
2023-05-19T00:04:13.629Z,11.82
2023-05-19T00:06:39.900Z,11.90
2023-05-19T00:09:06.172Z,11.94
2023-05-19T00:11:32.435Z,12.00
2023-05-19T00:13:58.705Z,11.99
2023-05-19T00:16:25.122Z,11.86
2023-05-19T00:18:51.788Z,11.92
2023-05-19T00:21:18.108Z,11.76
2023-05-19T00:23:44.405Z,11.90
2023-05-19T00:26:10.667Z,11.81
2023-05-19T00:28:36.945Z,11.81
2023-05-19T00:31:03.202Z,11.38
2023-05-19T00:33:29.495Z,11.68
2023-05-19T00:35:55.792Z,11.35
2023-05-19T00:38:22.070Z,10.95
2023-05-19T00:40:48.340Z,11.40
2023-05-19T00:43:14.616Z,11.29
2023-05-19T00:45:40.898Z,10.72
2023-05-19T00:48:07.267Z,11.03
2023-05-19T00:50:33.899Z,11.44
2023-05-19T00:53:00.382Z,11.63
2023-05-19T00:55:26.650Z,11.52
2023-05-19T00:57:52.911Z,11.74
2023-05-19T01:00:19.196Z,11.87
2023-05-19T01:02:45.569Z,11.71
2023-05-19T01:05:11.981Z,11.67
2023-05-19T01:07:38.253Z,11.66
2023-05-19T01:10:04.560Z,10.82
2023-05-19T01:12:30.845Z,10.33
2023-05-19T01:14:57.122Z,10.89
2023-05-19T01:17:23.477Z,11.36
2023-05-19T01:19:49.747Z,11.31
2023-05-19T01:22:16.063Z,11.37
2023-05-19T01:24:42.339Z,11.19
2023-05-19T01:27:08.616Z,11.35
2023-05-19T01:29:34.875Z,10.99
2023-05-19T01:32:01.195Z,10.49
2023-05-19T01:34:27.487Z,10.25
2023-05-19T01:36:53.785Z,10.75
2023-05-19T01:39:20.067Z,10.93
2023-05-19T01:41:46.344Z,11.10
2023-05-19T01:44:12.607Z,10.52
2023-05-19T01:46:38.889Z,10.33
2023-05-19T01:49:05.150Z,10.41
2023-05-19T01:51:31.412Z,10.57
2023-05-19T01:53:57.691Z,10.72
2023-05-19T01:56:24.002Z,10.93
2023-05-19T01:58:50.250Z,10.93
2023-05-19T02:01:16.552Z,10.93
2023-05-19T02:03:42.857Z,11.25
2023-05-19T02:06:09.132Z,11.28
2023-05-19T02:08:35.413Z,11.35
2023-05-19T02:11:01.704Z,11.30
2023-05-19T02:13:27.983Z,11.14
2023-05-19T02:15:54.293Z,10.97
2023-05-19T02:18:20.589Z,11.15
2023-05-19T02:20:46.860Z,10.96
2023-05-19T02:23:13.124Z,10.99
2023-05-19T02:25:39.386Z,11.22
2023-05-19T02:28:05.661Z,11.32
2023-05-19T02:30:32.317Z,11.50
2023-05-19T02:32:58.891Z,11.52
2023-05-19T02:35:25.255Z,11.03
2023-05-19T02:37:51.537Z,10.67
2023-05-19T02:40:17.821Z,10.72
2023-05-19T02:42:44.099Z,10.31
2023-05-19T02:45:10.362Z,10.08
2023-05-19T02:47:37.310Z,10.11
2023-05-19T02:50:03.649Z,10.58
2023-05-19T02:52:29.924Z,10.54
2023-05-19T02:54:56.232Z,10.96
2023-05-19T02:57:22.512Z,10.92
2023-05-19T02:59:48.761Z,11.22
2023-05-19T03:02:15.052Z,11.26
2023-05-19T03:04:41.412Z,11.38
2023-05-19T03:07:07.694Z,11.53
2023-05-19T03:09:34.021Z,11.53
2023-05-19T03:12:00.282Z,11.44
2023-05-19T03:14:26.570Z,11.36
2023-05-19T03:16:52.981Z,11.26
2023-05-19T03:19:19.422Z,11.15
2023-05-19T03:21:45.727Z,11.16
2023-05-19T03:24:12.011Z,11.10
2023-05-19T03:26:38.275Z,10.27
2023-05-19T03:29:04.539Z,10.06
2023-05-19T03:31:30.801Z,10.46
2023-05-19T03:33:57.066Z,10.80
2023-05-19T03:36:23.334Z,10.88
2023-05-19T03:38:49.595Z,10.92
2023-05-19T03:41:15.885Z,10.83
2023-05-19T03:43:42.172Z,10.98
2023-05-19T03:46:08.540Z,11.02
2023-05-19T03:48:34.850Z,11.22
2023-05-19T03:51:01.134Z,11.24
2023-05-19T03:53:27.412Z,11.31
2023-05-19T03:55:53.674Z,11.10
2023-05-19T03:58:19.986Z,11.11
2023-05-19T04:00:46.305Z,10.88
2023-05-19T04:03:12.725Z,9.93
2023-05-19T04:05:39.137Z,9.48
2023-05-19T04:08:05.399Z,9.43
2023-05-19T04:10:31.816Z,9.91
2023-05-19T04:12:58.252Z,10.22
2023-05-19T04:15:24.512Z,10.59
2023-05-19T04:17:50.889Z,10.76
2023-05-19T04:20:17.205Z,10.87
2023-05-19T04:22:43.514Z,11.07
2023-05-19T04:25:09.777Z,11.08
2023-05-19T04:27:36.103Z,11.06
2023-05-19T04:30:02.465Z,11.07
2023-05-19T04:32:28.810Z,11.14
2023-05-19T04:34:55.106Z,11.23
2023-05-19T04:37:21.404Z,11.27
2023-05-19T04:39:47.673Z,11.44
2023-05-19T04:42:13.924Z,11.47
2023-05-19T04:44:40.302Z,11.48
2023-05-19T04:47:06.705Z,11.54
2023-05-19T04:49:33.012Z,11.46
2023-05-19T04:51:59.332Z,11.54
2023-05-19T04:54:25.675Z,11.71
2023-05-19T04:56:52.017Z,11.84
2023-05-19T04:59:18.283Z,11.85
2023-05-19T05:01:44.568Z,11.96
2023-05-19T05:04:10.879Z,12.01
2023-05-19T05:06:37.167Z,11.91
2023-05-19T05:09:03.434Z,11.65
2023-05-19T05:11:29.763Z,11.87
2023-05-19T05:13:56.020Z,11.59
2023-05-19T05:16:22.410Z,11.17
2023-05-19T05:18:48.801Z,11.35
2023-05-19T05:21:15.116Z,11.72
2023-05-19T05:23:41.411Z,11.44
2023-05-19T05:26:07.663Z,11.57
2023-05-19T05:28:33.919Z,11.71
2023-05-19T05:31:00.281Z,11.09
2023-05-19T05:33:26.697Z,11.24
2023-05-19T05:35:53.056Z,11.56
2023-05-19T05:38:19.366Z,11.06
2023-05-19T05:40:45.635Z,11.61
2023-05-19T05:43:11.955Z,12.01
2023-05-19T05:45:38.249Z,11.98
2023-05-19T05:48:04.540Z,11.78
2023-05-19T05:50:30.956Z,12.08
2023-05-19T05:52:57.225Z,12.14
2023-05-19T05:55:23.505Z,12.21
2023-05-19T05:57:49.779Z,12.55
2023-05-19T06:00:16.039Z,12.71
2023-05-19T06:02:42.382Z,12.19
2023-05-19T06:05:08.688Z,11.95
2023-05-19T06:07:35.042Z,12.23
2023-05-19T06:10:01.343Z,12.77
2023-05-19T06:12:27.623Z,13.05
2023-05-19T06:14:53.916Z,13.19
2023-05-19T06:17:20.195Z,12.57
2023-05-19T06:19:46.463Z,12.36
2023-05-19T06:22:12.728Z,12.39
2023-05-19T06:24:39.650Z,12.28
2023-05-19T06:27:06.074Z,12.29
2023-05-19T06:29:32.357Z,12.37
2023-05-19T06:31:58.737Z,12.25
2023-05-19T06:34:25.141Z,12.12
2023-05-19T06:36:51.395Z,12.02
2023-05-19T06:39:17.661Z,11.84
2023-05-19T06:41:43.982Z,11.94
2023-05-19T06:44:10.241Z,12.24
2023-05-19T06:46:36.530Z,12.34
2023-05-19T06:49:02.809Z,12.24
2023-05-19T06:51:29.065Z,12.86
2023-05-19T06:53:55.386Z,12.50
2023-05-19T06:56:21.659Z,12.23
2023-05-19T06:58:47.981Z,12.21
2023-05-19T07:01:14.331Z,12.16
2023-05-19T07:03:40.774Z,12.13
2023-05-19T07:06:08.326Z,12.21
2023-05-19T07:08:34.884Z,12.72
2023-05-19T07:11:01.154Z,12.85
2023-05-19T07:13:27.759Z,13.12
2023-05-19T07:15:54.146Z,12.38
2023-05-19T07:18:20.489Z,12.34
2023-05-19T07:20:46.755Z,13.15
2023-05-19T07:23:13.145Z,12.80
2023-05-19T07:25:39.413Z,12.50
2023-05-19T07:28:05.720Z,12.65
2023-05-19T07:30:32.321Z,12.58
2023-05-19T07:32:58.757Z,12.79
2023-05-19T07:35:25.044Z,13.15
2023-05-19T07:37:51.376Z,14.02
2023-05-19T07:40:17.635Z,14.23
2023-05-19T07:42:43.927Z,14.57
2023-05-19T07:45:10.190Z,14.17
2023-05-19T07:47:36.518Z,14.63
2023-05-19T07:50:02.860Z,14.35
2023-05-19T07:52:29.230Z,13.55
2023-05-19T07:54:55.540Z,13.74
2023-05-19T07:57:21.851Z,13.09
2023-05-19T07:59:48.940Z,13.38
2023-05-19T08:02:15.295Z,13.62
2023-05-19T08:04:41.768Z,13.52
2023-05-19T08:07:08.105Z,13.68
2023-05-19T08:09:34.359Z,13.57
2023-05-19T08:12:00.631Z,13.99
2023-05-19T08:14:26.886Z,14.98
2023-05-19T08:16:53.150Z,14.92
2023-05-19T08:19:19.527Z,14.70
2023-05-19T08:21:45.852Z,14.05
2023-05-19T08:24:12.122Z,13.89
2023-05-19T08:26:38.448Z,13.16
2023-05-19T08:29:04.873Z,13.09
2023-05-19T08:31:32.626Z,12.55
2023-05-19T08:33:58.975Z,12.25
2023-05-19T08:36:25.302Z,12.45
2023-05-19T08:38:51.630Z,13.19
2023-05-19T08:41:17.893Z,13.33
2023-05-19T08:43:44.150Z,13.21
2023-05-19T08:46:10.518Z,13.07
2023-05-19T08:48:36.800Z,13.33
2023-05-19T08:51:03.089Z,13.72
2023-05-19T08:53:33.839Z,13.77
2023-05-19T08:56:00.752Z,14.26
2023-05-19T08:58:28.672Z,13.61
2023-05-19T09:00:56.061Z,13.70
2023-05-19T09:03:23.899Z,13.67
2023-05-19T09:05:50.600Z,13.51
2023-05-19T09:08:16.898Z,13.97
2023-05-19T09:10:43.170Z,13.53
2023-05-19T09:13:09.431Z,13.54
2023-05-19T09:15:35.869Z,13.92
2023-05-19T09:18:02.290Z,14.55
2023-05-19T09:20:28.615Z,14.11
2023-05-19T09:22:54.927Z,14.25
2023-05-19T09:25:21.320Z,14.81
2023-05-19T09:27:47.652Z,14.41
2023-05-19T09:30:13.934Z,14.83
2023-05-19T09:32:40.271Z,15.27
2023-05-19T09:35:06.690Z,14.40
2023-05-19T09:37:32.958Z,14.32
2023-05-19T09:39:59.252Z,14.98
2023-05-19T09:42:25.511Z,15.17
2023-05-19T09:44:51.777Z,15.54
2023-05-19T09:47:18.048Z,15.47
2023-05-19T09:49:44.360Z,15.54
2023-05-19T09:52:11.216Z,15.44
2023-05-19T09:54:38.951Z,15.80
2023-05-19T09:57:07.050Z,15.18
2023-05-19T09:59:34.505Z,15.61
2023-05-19T10:02:00.831Z,15.72
2023-05-19T10:04:27.175Z,15.68
2023-05-19T10:06:53.577Z,16.11
2023-05-19T10:09:19.852Z,16.12
2023-05-19T10:11:46.126Z,15.70
2023-05-19T10:14:12.409Z,15.74
2023-05-19T10:16:38.723Z,16.42
2023-05-19T10:19:05.157Z,16.53
2023-05-19T10:21:31.574Z,16.44
2023-05-19T10:23:57.852Z,16.22
2023-05-19T10:26:24.110Z,16.50
2023-05-19T10:28:50.391Z,16.04
2023-05-19T10:31:16.706Z,16.38
2023-05-19T10:33:43.009Z,16.36
2023-05-19T10:36:09.288Z,16.26
2023-05-19T10:38:35.555Z,16.31
2023-05-19T10:41:01.832Z,15.97
2023-05-19T10:43:28.185Z,16.26
2023-05-19T10:45:54.519Z,17.15
2023-05-19T10:48:20.815Z,16.89
2023-05-19T10:50:47.082Z,16.53
2023-05-19T10:53:13.349Z,16.00
2023-05-19T10:55:39.688Z,16.33
2023-05-19T10:58:06.671Z,16.32
2023-05-19T11:00:32.971Z,16.24
2023-05-19T11:02:59.304Z,16.20
2023-05-19T11:05:25.565Z,16.59
2023-05-19T11:07:51.902Z,15.90
2023-05-19T11:10:18.157Z,16.83
2023-05-19T11:12:44.436Z,17.17
2023-05-19T11:15:10.717Z,17.49
2023-05-19T11:17:37.023Z,18.23
2023-05-19T11:20:03.330Z,18.34
2023-05-19T11:22:29.670Z,17.62
2023-05-19T11:24:55.931Z,18.48
2023-05-19T11:27:22.201Z,18.36
2023-05-19T11:29:48.480Z,18.35
2023-05-19T11:32:14.937Z,17.17
2023-05-19T11:34:41.246Z,17.05
2023-05-19T11:37:07.541Z,16.93
2023-05-19T11:39:33.821Z,17.08
2023-05-19T11:42:00.113Z,17.08
2023-05-19T11:44:26.445Z,17.72
2023-05-19T11:46:52.852Z,17.92
2023-05-19T11:49:19.204Z,17.54
2023-05-19T11:51:45.465Z,17.51
2023-05-19T11:54:11.746Z,17.92
2023-05-19T11:56:38.012Z,17.32
2023-05-19T11:59:04.393Z,17.41
2023-05-19T12:01:30.651Z,17.27
2023-05-19T12:03:57.082Z,16.79
2023-05-19T12:06:23.497Z,16.47
2023-05-19T12:08:49.791Z,16.38
2023-05-19T12:11:16.987Z,17.05
2023-05-19T12:13:44.380Z,16.92
2023-05-19T12:16:10.716Z,17.26
2023-05-19T12:18:37.159Z,17.83
2023-05-19T12:21:03.503Z,17.98
2023-05-19T12:23:29.821Z,18.22
2023-05-19T12:25:56.115Z,17.44
2023-05-19T12:28:22.378Z,17.28
2023-05-19T12:30:48.651Z,17.02
2023-05-19T12:33:15.149Z,16.68
2023-05-19T12:35:41.596Z,15.92
2023-05-19T12:38:08.026Z,15.74
2023-05-19T12:40:34.642Z,15.70
2023-05-19T12:43:01.211Z,16.49
2023-05-19T12:45:27.548Z,16.59
2023-05-19T12:47:53.873Z,16.64
2023-05-19T12:50:20.285Z,16.69
2023-05-19T12:52:46.584Z,16.83
2023-05-19T12:55:13.365Z,16.58
2023-05-19T12:57:39.786Z,16.03
2023-05-19T13:00:06.109Z,16.52
2023-05-19T13:02:32.517Z,15.95
2023-05-19T13:04:58.857Z,16.09
2023-05-19T13:07:25.133Z,15.57
2023-05-19T13:09:51.433Z,16.06
2023-05-19T13:12:17.707Z,16.11
2023-05-19T13:14:43.992Z,15.34
2023-05-19T13:17:10.301Z,15.65
2023-05-19T13:19:36.698Z,15.63
2023-05-19T13:22:02.984Z,15.70
2023-05-19T13:24:29.317Z,15.41
2023-05-19T13:26:56.172Z,15.67
2023-05-19T13:29:22.537Z,16.03
2023-05-19T13:31:48.899Z,16.28
2023-05-19T13:34:15.165Z,16.93
2023-05-19T13:36:41.483Z,16.70
2023-05-19T13:39:07.769Z,17.20
2023-05-19T13:41:34.084Z,17.35
2023-05-19T13:44:00.382Z,16.18
2023-05-19T13:46:43.486Z,16.12
2023-05-19T13:49:11.887Z,15.73
2023-05-19T13:51:38.143Z,15.57
2023-05-19T13:54:04.413Z,15.58
2023-05-19T13:56:30.688Z,15.56
2023-05-19T13:58:57.025Z,15.40
2023-05-19T14:01:23.365Z,15.83
2023-05-19T14:03:49.908Z,16.26
2023-05-19T14:06:16.399Z,16.56
2023-05-19T14:08:42.698Z,17.08
2023-05-19T14:11:08.997Z,17.36
2023-05-19T14:13:37.293Z,16.75
2023-05-19T14:16:07.341Z,15.99
2023-05-19T14:18:33.757Z,15.19
2023-05-19T14:21:00.005Z,15.71
2023-05-19T14:23:26.286Z,15.91
2023-05-19T14:25:52.617Z,15.38
2023-05-19T14:28:18.872Z,15.96
2023-05-19T14:30:45.531Z,16.36
2023-05-19T14:33:11.865Z,16.06
2023-05-19T14:35:38.224Z,16.29
2023-05-19T14:38:04.499Z,15.94
2023-05-19T14:40:30.895Z,16.14
2023-05-19T14:42:57.465Z,15.85
2023-05-19T14:45:23.748Z,16.30
2023-05-19T14:47:50.075Z,16.50
2023-05-19T14:50:16.441Z,16.69
2023-05-19T14:52:42.731Z,16.92
2023-05-19T14:55:09.676Z,16.45
2023-05-19T14:57:35.950Z,16.61
2023-05-19T15:00:02.236Z,17.06
2023-05-19T15:02:29.679Z,16.80
2023-05-19T15:04:56.175Z,16.93
2023-05-19T15:07:22.476Z,15.94
2023-05-19T15:09:48.732Z,16.45
2023-05-19T15:12:14.999Z,16.39
2023-05-19T15:14:41.318Z,15.90
2023-05-19T15:17:07.688Z,15.92
2023-05-19T15:19:34.041Z,16.03
2023-05-19T15:22:00.337Z,16.24
2023-05-19T15:24:26.614Z,16.10
2023-05-19T15:26:52.930Z,16.28
2023-05-19T15:29:19.220Z,16.59
2023-05-19T15:31:45.641Z,16.24
2023-05-19T15:34:12.015Z,15.81
2023-05-19T15:36:38.315Z,15.89
2023-05-19T15:39:04.585Z,16.09
2023-05-19T15:41:30.868Z,16.32
2023-05-19T15:43:57.270Z,16.52
2023-05-19T15:46:23.654Z,16.01
2023-05-19T15:48:50.031Z,15.56
2023-05-19T15:51:16.317Z,15.35
2023-05-19T15:53:42.598Z,16.00
2023-05-19T15:56:08.867Z,15.71
2023-05-19T15:58:35.208Z,16.11
2023-05-19T16:01:01.478Z,16.11
2023-05-19T16:03:27.903Z,16.07
2023-05-19T16:05:54.260Z,15.69
2023-05-19T16:08:20.522Z,15.70
2023-05-19T16:10:46.782Z,15.96
2023-05-19T16:13:13.070Z,16.04
2023-05-19T16:15:39.366Z,16.06
2023-05-19T16:18:05.734Z,15.86
2023-05-19T16:20:32.223Z,16.30
2023-05-19T16:22:58.653Z,16.14
2023-05-19T16:25:24.943Z,15.94
2023-05-19T16:27:51.214Z,15.96
2023-05-19T16:30:17.522Z,15.15
2023-05-19T16:32:43.851Z,15.29
2023-05-19T16:35:10.155Z,15.16
2023-05-19T16:37:36.457Z,15.25
2023-05-19T16:40:02.753Z,14.84
2023-05-19T16:42:29.041Z,15.01
2023-05-19T16:44:55.319Z,15.85
2023-05-19T16:47:21.624Z,15.51
2023-05-19T16:49:47.922Z,15.21
2023-05-19T16:52:14.204Z,15.37
2023-05-19T16:54:40.492Z,15.30
2023-05-19T16:57:06.755Z,15.49
2023-05-19T16:59:33.007Z,15.42
2023-05-19T17:01:59.383Z,14.77
2023-05-19T17:04:25.686Z,14.76
2023-05-19T17:06:51.953Z,14.50
2023-05-19T17:09:18.236Z,14.23
2023-05-19T17:11:44.556Z,14.84
2023-05-19T17:14:10.888Z,14.82
2023-05-19T17:16:37.168Z,15.10
2023-05-19T17:19:03.551Z,14.94
2023-05-19T17:21:29.855Z,14.68
2023-05-19T17:23:56.155Z,15.22
2023-05-19T17:26:22.489Z,14.52
2023-05-19T17:28:48.782Z,14.32
2023-05-19T17:31:15.131Z,14.67
2023-05-19T17:33:41.443Z,14.47
2023-05-19T17:36:07.725Z,14.44
2023-05-19T17:38:34.020Z,14.89
2023-05-19T17:41:00.339Z,14.38
2023-05-19T17:43:26.643Z,14.14
2023-05-19T17:45:53.008Z,14.06
2023-05-19T17:48:19.297Z,14.17
2023-05-19T17:50:45.580Z,14.20
2023-05-19T17:53:11.828Z,14.35
2023-05-19T17:55:38.099Z,14.08
2023-05-19T17:58:04.393Z,13.70
2023-05-19T18:00:30.666Z,13.71
2023-05-19T18:02:57.099Z,14.15
2023-05-19T18:05:25.560Z,14.71
2023-05-19T18:07:51.830Z,14.22
2023-05-19T18:10:18.111Z,14.27
2023-05-19T18:12:44.368Z,14.85
2023-05-19T18:15:10.666Z,14.74
2023-05-19T18:17:37.048Z,14.85
2023-05-19T18:20:03.382Z,14.56
2023-05-19T18:22:29.676Z,13.81
2023-05-19T18:24:55.963Z,13.50
2023-05-19T18:27:22.320Z,13.81
2023-05-19T18:29:49.679Z,14.26
2023-05-19T18:32:16.000Z,14.10
2023-05-19T18:34:42.369Z,14.17
2023-05-19T18:37:08.650Z,14.25
2023-05-19T18:39:34.929Z,14.65
2023-05-19T18:42:01.223Z,14.67
2023-05-19T18:44:27.492Z,14.63
2023-05-19T18:46:53.764Z,14.43
2023-05-19T18:49:20.058Z,13.70
2023-05-19T18:51:46.355Z,14.17
2023-05-19T18:54:12.636Z,14.33
2023-05-19T18:56:38.932Z,14.10
2023-05-19T18:59:05.251Z,13.85
2023-05-19T19:01:31.566Z,14.05
2023-05-19T19:03:57.842Z,14.11
2023-05-19T19:06:24.183Z,13.96
2023-05-19T19:08:51.417Z,13.77
2023-05-19T19:11:17.840Z,13.85
2023-05-19T19:13:44.259Z,13.25
2023-05-19T19:16:10.651Z,13.56
2023-05-19T19:18:37.042Z,12.91
2023-05-19T19:21:03.386Z,13.03
2023-05-19T19:23:29.679Z,13.54
2023-05-19T19:25:56.018Z,13.03
2023-05-19T19:28:22.390Z,13.22
2023-05-19T19:30:48.742Z,13.39
2023-05-19T19:33:15.167Z,13.75
2023-05-19T19:35:41.529Z,13.97
2023-05-19T19:38:07.902Z,13.85
2023-05-19T19:40:34.494Z,13.72
2023-05-19T19:43:01.084Z,14.01
2023-05-19T19:45:27.377Z,14.16
2023-05-19T19:47:53.752Z,14.01
2023-05-19T19:50:20.112Z,13.68
2023-05-19T19:52:46.478Z,13.47
2023-05-19T19:55:12.783Z,13.52
2023-05-19T19:57:39.121Z,13.57
2023-05-19T20:00:05.481Z,13.83
2023-05-19T20:02:31.882Z,13.97
2023-05-19T20:04:58.228Z,14.21
2023-05-19T20:07:24.577Z,14.02
2023-05-19T20:09:50.911Z,13.53
2023-05-19T20:12:17.209Z,13.43
2023-05-19T20:14:43.540Z,12.96
2023-05-19T20:17:09.828Z,13.64
2023-05-19T20:19:36.184Z,13.74
2023-05-19T20:22:02.493Z,13.32
2023-05-19T20:24:28.805Z,13.88
2023-05-19T20:26:55.131Z,13.77
2023-05-19T20:29:21.431Z,13.65
2023-05-19T20:31:47.704Z,13.47
2023-05-19T20:34:14.006Z,13.55
2023-05-19T20:36:40.286Z,13.73
2023-05-19T20:39:06.544Z,13.33
2023-05-19T20:41:32.900Z,13.27
2023-05-19T20:43:59.185Z,13.49
2023-05-19T20:46:25.597Z,13.67
2023-05-19T20:48:51.971Z,13.57
2023-05-19T20:51:18.254Z,13.41
2023-05-19T20:53:44.588Z,13.95
2023-05-19T20:56:10.887Z,14.12
2023-05-19T20:58:37.144Z,14.25
2023-05-19T21:01:03.487Z,14.26
2023-05-19T21:03:29.771Z,14.32
2023-05-19T21:05:56.067Z,14.34
2023-05-19T21:08:22.342Z,14.30
2023-05-19T21:10:48.651Z,14.41
2023-05-19T21:13:14.925Z,14.25
2023-05-19T21:15:41.188Z,13.44
2023-05-19T21:18:07.646Z,13.19
2023-05-19T21:20:34.226Z,13.17
2023-05-19T21:23:00.702Z,13.17
2023-05-19T21:25:27.055Z,13.32
2023-05-19T21:27:53.333Z,13.57
2023-05-19T21:30:19.622Z,13.55
2023-05-19T21:32:45.933Z,13.39
2023-05-19T21:35:12.337Z,13.41
2023-05-19T21:37:38.630Z,13.40
2023-05-19T21:40:05.024Z,13.23
2023-05-19T21:42:31.292Z,13.31
2023-05-19T21:44:57.581Z,13.30
2023-05-19T21:47:23.832Z,13.47
2023-05-19T21:49:50.175Z,13.53
2023-05-19T21:52:16.437Z,12.95
2023-05-19T21:54:42.692Z,13.37
2023-05-19T21:57:08.981Z,13.23
2023-05-19T21:59:35.262Z,13.42
2023-05-19T22:02:01.590Z,13.14
2023-05-19T22:04:27.884Z,13.52
2023-05-19T22:06:54.172Z,13.56
2023-05-19T22:09:20.429Z,13.33
2023-05-19T22:11:46.697Z,13.46
2023-05-19T22:14:13.029Z,12.84
2023-05-19T22:16:39.381Z,13.16
2023-05-19T22:19:05.775Z,13.29
2023-05-19T22:21:32.098Z,13.31
2023-05-19T22:23:58.425Z,13.30
2023-05-19T22:26:24.693Z,13.39
2023-05-19T22:28:50.967Z,13.07
2023-05-19T22:31:17.317Z,12.85
2023-05-19T22:33:43.576Z,13.08
2023-05-19T22:36:09.940Z,13.15
2023-05-19T22:38:36.201Z,13.03
2023-05-19T22:41:02.474Z,12.99
2023-05-19T22:43:28.758Z,13.02
2023-05-19T22:45:55.055Z,12.57
2023-05-19T22:48:21.364Z,12.95
2023-05-19T22:50:47.683Z,12.95
2023-05-19T22:53:13.951Z,12.93
2023-05-19T22:55:40.220Z,12.98
2023-05-19T22:58:06.526Z,13.06
2023-05-19T23:00:32.903Z,12.83
2023-05-19T23:02:59.333Z,12.42
2023-05-19T23:05:25.618Z,11.79
2023-05-19T23:07:51.971Z,11.64
2023-05-19T23:10:18.237Z,11.68
2023-05-19T23:12:44.567Z,12.24
2023-05-19T23:15:10.896Z,12.38
2023-05-19T23:17:37.231Z,12.07
2023-05-19T23:20:03.540Z,11.88
2023-05-19T23:22:29.822Z,11.82
2023-05-19T23:24:56.093Z,11.75
2023-05-19T23:27:22.369Z,11.69
2023-05-19T23:29:48.634Z,11.72
2023-05-19T23:32:14.901Z,11.59
2023-05-19T23:34:41.193Z,11.18
2023-05-19T23:37:07.460Z,10.50
2023-05-19T23:39:33.745Z,10.28
2023-05-19T23:42:00.024Z,10.68
2023-05-19T23:44:26.292Z,10.95
2023-05-19T23:46:52.622Z,11.30
2023-05-19T23:49:18.913Z,11.49
2023-05-19T23:51:45.176Z,11.48
2023-05-19T23:54:11.472Z,11.48
2023-05-19T23:56:37.926Z,11.42
2023-05-19T23:59:04.217Z,11.35
